createdAt,value
2018-11-20T00:02:07.391Z,101010.00
2018-11-20T00:07:39.379Z,101000.00
2018-11-20T00:12:43.231Z,100990.00
2018-11-20T00:15:32.278Z,100985.00
2018-11-20T00:18:13.685Z,100985.00
2018-11-20T00:20:46.791Z,100982.00
2018-11-20T00:23:54.218Z,100985.00
2018-11-20T00:29:05.723Z,100988.00
2018-11-20T00:31:54.256Z,100985.00
2018-11-20T00:34:50.479Z,100973.00
2018-11-20T00:39:59.538Z,100976.00
2018-11-20T00:42:57.872Z,100978.00
2018-11-20T00:46:02.921Z,100978.00
2018-11-20T00:48:54.855Z,100975.00
2018-11-20T00:54:31.254Z,100983.00
2018-11-20T00:57:23.188Z,100967.00
2018-11-20T01:00:19.690Z,100960.00
2018-11-20T01:03:15.395Z,100970.00
2018-11-20T01:05:46.043Z,100960.00
2018-11-20T01:08:36.260Z,100956.00
2018-11-20T01:11:47.605Z,100968.00
2018-11-20T01:14:37.543Z,100968.00
2018-11-20T01:17:40.721Z,100964.00
2018-11-20T01:20:41.353Z,100948.00
2018-11-20T01:23:09.512Z,100951.00
2018-11-20T01:26:01.291Z,100936.00
2018-11-20T01:29:05.018Z,100939.00
2018-11-20T01:32:04.643Z,100940.00
2018-11-20T01:34:51.297Z,100921.00
2018-11-20T01:39:55.559Z,100936.00
2018-11-20T01:42:51.711Z,100931.00
2018-11-20T01:45:50.552Z,100920.00
2018-11-20T01:48:45.228Z,100943.00
2018-11-20T01:51:34.191Z,100920.00
2018-11-20T01:54:31.468Z,100928.00
2018-11-20T01:57:16.116Z,100921.00
2018-11-20T02:00:09.037Z,100920.00
2018-11-20T02:02:39.539Z,100922.00
2018-11-20T02:05:37.609Z,100923.00
2018-11-20T02:08:31.470Z,100908.00
2018-11-20T02:11:04.870Z,100914.00
2018-11-20T02:14:28.880Z,100907.00
2018-11-20T02:17:32.129Z,100899.00
2018-11-20T02:22:58.828Z,100899.00
2018-11-20T02:25:32.772Z,100889.00
2018-11-20T02:28:38.280Z,100881.00
2018-11-20T02:31:42.352Z,100875.00
2018-11-20T02:34:15.897Z,100892.00
2018-11-20T02:37:23.204Z,100881.00
2018-11-20T02:42:55.423Z,100882.00
2018-11-20T02:45:29.026Z,100867.00
2018-11-20T02:48:18.575Z,100869.00
2018-11-20T02:51:16.111Z,100873.00
2018-11-20T02:56:35.891Z,100875.00
2018-11-20T02:59:29.698Z,100865.00
2018-11-20T03:05:00.626Z,100863.00
2018-11-20T03:08:09.347Z,100852.00
2018-11-20T03:11:01.602Z,100868.00
2018-11-20T03:13:50.285Z,100856.00
2018-11-20T03:16:44.313Z,100851.00
2018-11-20T03:22:23.581Z,100829.00
2018-11-20T03:25:27.553Z,100832.00
2018-11-20T03:28:21.552Z,100835.00
2018-11-20T03:33:45.593Z,100824.00
2018-11-20T03:36:16.496Z,100826.00
2018-11-20T03:39:11.290Z,100829.00
2018-11-20T03:44:34.139Z,100822.00
2018-11-20T03:50:12.716Z,100832.00
2018-11-20T03:53:05.011Z,100829.00
2018-11-20T03:55:57.804Z,100834.00
2018-11-20T03:58:50.124Z,100831.00
2018-11-20T04:04:13.910Z,100815.00
2018-11-20T04:06:56.635Z,100804.00
2018-11-20T04:09:36.424Z,100805.00
2018-11-20T04:12:29.789Z,100805.00
2018-11-20T04:20:35.597Z,100788.00
2018-11-20T04:23:08.639Z,100796.00
2018-11-20T04:26:00.757Z,100788.00
2018-11-20T04:28:50.872Z,100781.00
2018-11-20T04:31:43.830Z,100787.00
2018-11-20T04:34:45.758Z,100773.00
2018-11-20T04:39:52.065Z,100761.00
2018-11-20T04:42:25.064Z,100767.00
2018-11-20T04:44:57.920Z,100764.00
2018-11-20T04:50:46.935Z,100757.00
2018-11-20T04:53:17.765Z,100757.00
2018-11-20T04:56:11.817Z,100749.00
2018-11-20T04:58:42.096Z,100746.00
2018-11-20T05:01:47.681Z,100746.00
2018-11-20T05:04:42.417Z,100746.00
2018-11-20T05:07:33.908Z,100732.00
2018-11-20T05:10:27.212Z,100739.00
2018-11-20T05:13:01.071Z,100732.00
2018-11-20T05:16:04.880Z,100723.00
2018-11-20T05:19:03.843Z,100734.00
2018-11-20T05:24:43.906Z,100736.00
2018-11-20T05:27:37.307Z,100727.00
2018-11-20T05:30:29.358Z,100720.00
2018-11-20T05:33:09.962Z,100724.00
2018-11-20T05:36:03.588Z,100720.00
2018-11-20T05:38:43.646Z,100724.00
2018-11-20T05:41:53.712Z,100724.00
2018-11-20T05:47:12.648Z,100720.00
2018-11-20T05:50:04.737Z,100723.00
2018-11-20T05:55:08.838Z,100720.00
2018-11-20T05:58:04.409Z,100708.00
2018-11-20T06:00:55.863Z,100708.00
2018-11-20T06:03:29.410Z,100712.00
2018-11-20T06:06:46.787Z,100717.00
2018-11-20T06:09:46.932Z,100714.00
2018-11-20T06:14:53.959Z,100713.00
2018-11-20T06:17:40.422Z,100707.00
2018-11-20T06:20:33.824Z,100710.00
2018-11-20T06:23:22.079Z,100712.00
2018-11-20T06:26:23.741Z,100714.00
2018-11-20T06:31:42.636Z,100698.00
2018-11-20T06:34:46.513Z,100705.00
2018-11-20T06:37:49.026Z,100711.00
2018-11-20T06:40:54.067Z,100711.00
2018-11-20T06:43:48.043Z,100700.00
2018-11-20T06:46:28.701Z,100708.00
2018-11-20T06:49:22.034Z,100697.00
2018-11-20T06:51:55.318Z,100695.00
2018-11-20T06:54:46.414Z,100696.00
2018-11-20T07:00:10.711Z,100692.00
2018-11-20T07:05:37.365Z,100696.00
2018-11-20T07:08:39.286Z,100692.00
2018-11-20T07:16:51.322Z,100689.00
2018-11-20T07:19:40.775Z,100703.00
2018-11-20T07:22:48.901Z,100704.00
2018-11-20T07:25:22.430Z,100700.00
2018-11-20T07:28:16.387Z,100705.00
2018-11-20T07:33:39.142Z,100712.00
2018-11-20T07:36:15.418Z,100700.00
2018-11-20T07:42:10.742Z,100699.00
2018-11-20T07:45:00.225Z,100700.00
2018-11-20T07:51:33.057Z,100698.00
2018-11-20T07:54:24.753Z,100689.00
2018-11-20T07:57:25.640Z,100675.00
2018-11-20T08:00:03.017Z,100688.00
2018-11-20T08:02:51.898Z,100684.00
2018-11-20T08:05:45.977Z,100685.00
2018-11-20T08:08:41.072Z,100678.00
2018-11-20T08:11:35.563Z,100669.00
2018-11-20T08:14:30.352Z,100667.00
2018-11-20T08:17:19.040Z,100679.00
2018-11-20T08:20:10.653Z,100671.00
2018-11-20T08:22:58.252Z,100680.00
2018-11-20T08:25:52.947Z,100675.00
2018-11-20T08:28:57.111Z,100667.00
2018-11-20T08:32:04.687Z,100674.00
2018-11-20T08:35:01.055Z,100666.00
2018-11-20T08:37:48.823Z,100669.00
2018-11-20T08:40:40.640Z,100674.00
2018-11-20T08:43:34.537Z,100669.00
2018-11-20T08:46:32.293Z,100670.00
2018-11-20T08:49:24.295Z,100665.00
2018-11-20T08:52:13.109Z,100664.00
2018-11-20T08:55:00.682Z,100670.00
2018-11-20T08:57:48.326Z,100661.00
2018-11-20T09:00:28.784Z,100669.00
2018-11-20T09:03:16.339Z,100666.00
2018-11-20T09:06:03.959Z,100661.00
2018-11-20T09:08:52.184Z,100667.00
2018-11-20T09:11:39.726Z,100664.00
2018-11-20T09:14:36.556Z,100660.00
2018-11-20T09:17:31.699Z,100660.00
2018-11-20T09:20:21.078Z,100647.00
2018-11-20T09:23:28.566Z,100648.00
2018-11-20T09:26:16.972Z,100648.00
2018-11-20T09:29:03.037Z,100642.00
2018-11-20T09:31:50.941Z,100652.00
2018-11-20T09:34:39.887Z,100648.00
2018-11-20T09:37:33.482Z,100651.00
2018-11-20T09:41:00.948Z,100646.00
2018-11-20T09:43:57.671Z,100643.00
2018-11-20T09:46:46.357Z,100630.00
2018-11-20T09:49:28.030Z,100634.00
2018-11-20T09:52:31.668Z,100631.00
2018-11-20T09:55:26.203Z,100620.00
2018-11-20T09:58:10.892Z,100615.00
2018-11-20T10:00:57.432Z,100614.00
2018-11-20T10:03:55.082Z,100615.00
2018-11-20T10:06:42.102Z,100616.00
2018-11-20T10:09:42.820Z,100604.00
2018-11-20T10:12:43.671Z,100614.00
2018-11-20T10:15:32.375Z,100610.00
2018-11-20T10:18:33.147Z,100616.00
2018-11-20T10:21:20.500Z,100618.00
2018-11-20T10:24:18.179Z,100616.00
2018-11-20T10:27:07.263Z,100617.00
2018-11-20T10:29:54.446Z,100612.00
2018-11-20T10:32:41.725Z,100595.00
2018-11-20T10:35:28.398Z,100588.00
2018-11-20T10:38:12.607Z,100589.00
2018-11-20T10:41:04.856Z,100593.00
2018-11-20T10:43:50.629Z,100591.00
2018-11-20T10:46:45.751Z,100582.00
2018-11-20T10:49:37.431Z,100564.00
2018-11-20T10:52:26.630Z,100570.00
2018-11-20T10:55:15.700Z,100572.00
2018-11-20T10:58:22.490Z,100566.00
2018-11-20T11:04:40.640Z,100555.00
2018-11-20T11:07:50.207Z,100556.00
2018-11-20T11:10:43.321Z,100558.00
2018-11-20T11:13:30.817Z,100551.00
2018-11-20T11:16:31.794Z,100546.00
2018-11-20T11:19:20.457Z,100555.00
2018-11-20T11:22:11.903Z,100541.00
2018-11-20T11:25:09.409Z,100531.00
2018-11-20T11:28:00.966Z,100534.00
2018-11-20T11:30:52.330Z,100529.00
2018-11-20T11:33:56.052Z,100533.00
2018-11-20T11:36:44.687Z,100545.00
2018-11-20T11:39:36.412Z,100541.00
2018-11-20T11:42:24.087Z,100536.00
2018-11-20T11:45:11.683Z,100532.00
2018-11-20T11:48:13.758Z,100532.00
2018-11-20T11:51:04.121Z,100536.00
2018-11-20T11:53:43.914Z,100533.00
2018-11-20T11:56:50.851Z,100521.00
2018-11-20T11:59:38.450Z,100522.00
2018-11-20T12:05:34.447Z,100518.00
2018-11-20T12:08:17.783Z,100522.00
2018-11-20T12:10:59.670Z,100519.00
2018-11-20T12:13:51.351Z,100518.00
2018-11-20T12:16:33.081Z,100520.00
2018-11-20T12:19:24.669Z,100513.00
2018-11-20T12:22:32.011Z,100511.00
2018-11-20T12:25:23.833Z,100499.00
2018-11-20T12:28:39.267Z,100505.00
2018-11-20T12:32:00.035Z,100496.00
2018-11-20T12:34:54.427Z,100498.00
2018-11-20T12:37:51.932Z,100499.00
2018-11-20T12:40:54.756Z,100502.00
2018-11-20T12:44:00.060Z,100494.00
2018-11-20T12:47:14.932Z,100487.00
2018-11-20T12:50:16.105Z,100482.00
2018-11-20T12:53:43.237Z,100481.00
2018-11-20T12:57:21.791Z,100477.00
2018-11-20T13:00:13.117Z,100463.00
2018-11-20T13:03:06.010Z,100453.00
2018-11-20T13:05:50.563Z,100469.00
2018-11-20T13:08:37.825Z,100466.00
2018-11-20T13:11:26.568Z,100466.00
2018-11-20T13:14:24.250Z,100468.00
2018-11-20T13:17:13.592Z,100463.00
2018-11-20T13:20:00.792Z,100468.00
2018-11-20T13:22:50.520Z,100464.00
2018-11-20T13:25:39.321Z,100463.00
2018-11-20T13:28:28.115Z,100457.00
2018-11-20T13:31:16.919Z,100468.00
2018-11-20T13:34:20.786Z,100459.00
2018-11-20T13:37:02.280Z,100466.00
2018-11-20T13:39:49.776Z,100470.00
2018-11-20T13:42:45.551Z,100470.00
2018-11-20T13:45:46.604Z,100454.00
2018-11-20T13:48:35.341Z,100455.00
2018-11-20T13:51:25.888Z,100450.00
2018-11-20T13:54:13.100Z,100449.00
2018-11-20T13:57:02.669Z,100469.00
2018-11-20T13:59:54.213Z,100468.00
2018-11-20T14:02:33.000Z,100460.00
2018-11-20T14:05:15.044Z,100459.00
2018-11-20T14:08:03.339Z,100460.00
2018-11-20T14:10:49.635Z,100469.00
2018-11-20T14:13:37.795Z,100468.00
2018-11-20T14:16:25.122Z,100469.00
2018-11-20T14:19:18.307Z,100461.00
2018-11-20T14:21:55.423Z,100448.00
2018-11-20T14:24:46.970Z,100447.00
2018-11-20T14:27:47.638Z,100448.00
2018-11-20T14:30:36.449Z,100435.00
2018-11-20T14:33:30.557Z,100433.00
2018-11-20T14:36:22.446Z,100439.00
2018-11-20T14:39:15.211Z,100438.00
2018-11-20T14:42:02.646Z,100426.00
2018-11-20T14:45:00.621Z,100427.00
2018-11-20T14:47:44.213Z,100432.00
2018-11-20T14:50:37.130Z,100435.00
2018-11-20T14:53:20.636Z,100439.00
2018-11-20T14:56:12.445Z,100429.00
2018-11-20T14:59:10.249Z,100428.00
2018-11-20T15:02:07.997Z,100436.00
2018-11-20T15:04:53.362Z,100439.00
2018-11-20T15:07:42.186Z,100435.00
2018-11-20T15:10:29.457Z,100435.00
2018-11-20T15:13:17.176Z,100444.00
2018-11-20T15:16:23.639Z,100446.00
2018-11-20T15:19:20.601Z,100440.00
2018-11-20T15:22:16.065Z,100434.00
2018-11-20T15:25:14.016Z,100435.00
2018-11-20T15:28:04.020Z,100427.00
2018-11-20T15:30:57.441Z,100428.00
2018-11-20T15:33:56.628Z,100429.00
2018-11-20T15:36:47.633Z,100434.00
2018-11-20T15:39:23.779Z,100437.00
2018-11-20T15:42:20.053Z,100440.00
2018-11-20T15:45:12.191Z,100441.00
2018-11-20T15:48:11.981Z,100452.00
2018-11-20T15:51:09.932Z,100443.00
2018-11-20T15:54:02.995Z,100442.00
2018-11-20T15:57:07.372Z,100433.00
2018-11-20T15:59:56.149Z,100431.00
2018-11-20T16:02:59.670Z,100445.00
2018-11-20T16:06:00.678Z,100437.00
2018-11-20T16:08:48.772Z,100440.00
2018-11-20T16:11:41.279Z,100441.00
2018-11-20T16:14:39.647Z,100443.00
2018-11-20T16:17:34.145Z,100435.00
2018-11-20T16:20:21.680Z,100429.00
2018-11-20T16:23:09.057Z,100427.00
2018-11-20T16:25:56.560Z,100429.00
2018-11-20T16:28:54.355Z,100435.00
2018-11-20T16:31:42.243Z,100436.00
2018-11-20T16:34:28.343Z,100434.00
2018-11-20T16:37:13.715Z,100431.00
2018-11-20T16:40:01.403Z,100428.00
2018-11-20T16:42:48.610Z,100430.00
2018-11-20T16:45:43.155Z,100434.00
2018-11-20T16:48:37.470Z,100432.00
2018-11-20T16:51:24.902Z,100431.00
2018-11-20T16:54:31.936Z,100432.00
2018-11-20T16:57:26.680Z,100440.00
2018-11-20T17:00:14.082Z,100444.00
2018-11-20T17:02:50.509Z,100444.00
2018-11-20T17:05:54.376Z,100447.00
2018-11-20T17:09:01.445Z,100451.00
2018-11-20T17:11:44.421Z,100440.00
2018-11-20T17:14:24.643Z,100438.00
2018-11-20T17:17:26.637Z,100424.00
2018-11-20T17:20:21.947Z,100438.00
2018-11-20T17:23:19.682Z,100437.00
2018-11-20T17:26:20.649Z,100437.00
2018-11-20T17:29:09.388Z,100438.00
2018-11-20T17:32:05.684Z,100441.00
2018-11-20T17:34:52.984Z,100438.00
2018-11-20T17:37:35.702Z,100455.00
2018-11-20T17:40:24.719Z,100450.00
2018-11-20T17:43:31.508Z,100463.00
2018-11-20T17:46:16.733Z,100471.00
2018-11-20T17:49:03.954Z,100476.00
2018-11-20T17:52:07.858Z,100477.00
2018-11-20T17:54:56.639Z,100476.00
2018-11-20T17:57:43.724Z,100480.00
2018-11-20T18:00:44.584Z,100471.00
2018-11-20T18:03:51.720Z,100485.00
2018-11-20T18:06:43.241Z,100489.00
2018-11-20T18:09:40.982Z,100490.00
2018-11-20T18:12:32.842Z,100485.00
2018-11-20T18:15:22.343Z,100485.00
2018-11-20T18:18:07.433Z,100489.00
2018-11-20T18:20:54.868Z,100491.00
2018-11-20T18:23:37.216Z,100488.00
2018-11-20T18:26:23.027Z,100495.00
2018-11-20T18:29:10.764Z,100486.00
2018-11-20T18:32:14.317Z,100480.00
2018-11-20T18:35:05.760Z,100479.00
2018-11-20T18:38:09.157Z,100480.00
2018-11-20T18:40:59.046Z,100480.00
2018-11-20T18:43:59.582Z,100478.00
2018-11-20T18:46:44.478Z,100485.00
2018-11-20T18:49:31.683Z,100472.00
2018-11-20T18:52:38.862Z,100482.00
2018-11-20T18:55:39.877Z,100481.00
2018-11-20T18:58:40.896Z,100475.00
2018-11-20T19:01:32.464Z,100476.00
2018-11-20T19:04:33.294Z,100487.00
2018-11-20T19:07:27.555Z,100509.00
2018-11-20T19:10:15.436Z,100513.00
2018-11-20T19:13:09.816Z,100507.00
2018-11-20T19:15:57.619Z,100512.00
2018-11-20T19:18:45.114Z,100507.00
2018-11-20T19:21:32.567Z,100509.00
2018-11-20T19:24:24.255Z,100511.00
2018-11-20T19:27:11.655Z,100522.00
2018-11-20T19:29:59.071Z,100523.00
2018-11-20T19:32:53.367Z,100527.00
2018-11-20T19:35:44.789Z,100525.00
2018-11-20T19:38:32.026Z,100528.00
2018-11-20T19:41:32.622Z,100527.00
2018-11-20T19:44:20.206Z,100521.00
2018-11-20T19:47:18.070Z,100527.00
2018-11-20T19:50:09.762Z,100527.00
2018-11-20T19:52:58.513Z,100533.00
2018-11-20T19:55:55.987Z,100540.00
2018-11-20T19:58:31.020Z,100544.00
2018-11-20T20:01:18.700Z,100557.00
2018-11-20T20:04:06.200Z,100548.00
2018-11-20T20:06:53.747Z,100547.00
2018-11-20T20:09:40.953Z,100543.00
2018-11-20T20:12:32.310Z,100550.00
2018-11-20T20:15:21.009Z,100554.00
2018-11-20T20:18:08.799Z,100556.00
2018-11-20T20:21:15.868Z,100565.00
2018-11-20T20:23:59.967Z,100565.00
2018-11-20T20:26:43.536Z,100571.00
2018-11-20T20:29:30.783Z,100568.00
2018-11-20T20:32:23.689Z,100564.00
2018-11-20T20:35:11.114Z,100568.00
2018-11-20T20:37:58.511Z,100564.00
2018-11-20T20:40:53.308Z,100567.00
2018-11-20T20:44:00.197Z,100572.00
2018-11-20T20:46:51.016Z,100566.00
2018-11-20T20:49:36.740Z,100568.00
2018-11-20T20:52:25.585Z,100577.00
2018-11-20T20:55:13.143Z,100579.00
2018-11-20T20:58:04.613Z,100576.00
2018-11-20T21:01:08.327Z,100577.00
2018-11-20T21:03:59.649Z,100566.00
2018-11-20T21:06:45.959Z,100569.00
2018-11-20T21:09:37.540Z,100579.00
2018-11-20T21:12:25.019Z,100583.00
2018-11-20T21:15:29.552Z,100586.00
2018-11-20T21:18:22.971Z,100592.00
2018-11-20T21:21:23.599Z,100583.00
2018-11-20T21:24:12.412Z,100577.00
2018-11-20T21:27:01.146Z,100583.00
2018-11-20T21:30:02.168Z,100582.00
2018-11-20T21:32:50.880Z,100596.00
2018-11-20T21:35:38.395Z,100604.00
2018-11-20T21:38:29.864Z,100607.00
2018-11-20T21:41:24.578Z,100606.00
2018-11-20T21:44:12.530Z,100597.00
2018-11-20T21:47:13.131Z,100602.00
2018-11-20T21:50:04.950Z,100614.00
2018-11-20T21:52:56.520Z,100625.00
2018-11-20T21:55:51.046Z,100622.00
2018-11-20T21:58:48.528Z,100643.00
2018-11-20T22:01:33.690Z,100646.00
2018-11-20T22:04:20.860Z,100638.00
2018-11-20T22:07:21.543Z,100636.00
2018-11-20T22:10:22.080Z,100641.00
2018-11-20T22:13:09.308Z,100647.00
2018-11-20T22:16:09.442Z,100645.00
2018-11-20T22:19:16.148Z,100652.00
2018-11-20T22:22:23.016Z,100651.00
2018-11-20T22:25:10.435Z,100649.00
2018-11-20T22:28:04.979Z,100643.00
2018-11-20T22:30:52.978Z,100644.00
2018-11-20T22:33:40.505Z,100651.00
2018-11-20T22:36:44.225Z,100658.00
2018-11-20T22:39:34.929Z,100664.00
2018-11-20T22:42:22.128Z,100675.00
2018-11-20T22:45:09.569Z,100658.00
2018-11-20T22:47:57.133Z,100659.00
2018-11-20T22:50:45.775Z,100654.00
2018-11-20T22:53:43.495Z,100652.00
2018-11-20T22:56:37.940Z,100656.00
2018-11-20T22:59:23.692Z,100664.00
2018-11-20T23:02:02.463Z,100662.00
2018-11-20T23:05:03.908Z,100655.00
2018-11-20T23:07:53.195Z,100656.00
2018-11-20T23:10:24.180Z,100665.00
2018-11-20T23:12:54.383Z,100655.00
2018-11-20T23:15:24.110Z,100659.00
2018-11-20T23:17:53.908Z,100655.00
2018-11-20T23:20:23.634Z,100646.00
2018-11-20T23:22:53.396Z,100643.00
2018-11-20T23:25:23.229Z,100630.00
2018-11-20T23:27:53.003Z,100635.00
2018-11-20T23:30:22.789Z,100634.00
2018-11-20T23:32:52.483Z,100655.00
2018-11-20T23:35:22.290Z,100645.00
2018-11-20T23:37:52.092Z,100648.00
2018-11-20T23:40:21.759Z,100645.00
2018-11-20T23:42:51.445Z,100657.00
2018-11-20T23:45:21.242Z,100651.00
2018-11-20T23:47:51.071Z,100655.00
2018-11-20T23:50:20.777Z,100655.00
2018-11-20T23:52:50.603Z,100652.00
2018-11-20T23:55:20.353Z,100643.00
2018-11-20T23:57:50.197Z,100650.00
